Time;durP1;ratioP1;P1;durP2;ratioP2;P2;SDS_P1;SDS_P2;PMS_P1;PMS_P2;Temp;Humidity;BMP_temperature;BMP_pressure;BME280_temperature;BME280_humidity;BME280_pressure;Samples;Min_cycle;Max_cycle;Signal;HPM_P1;HPM_P2
2023/08/13 00:00:16;;;;;;;5.60;3.20;;;;;;;14.92;100.00;100919.78;679252;29;1166;-63
2023/08/13 00:00:36;;;;;;;5.40;3.13;;;;;;;14.93;100.00;100921.50;679529;29;1011;-64
2023/08/13 00:00:57;;;;;;;5.90;3.30;;;;;;;14.93;100.00;100924.16;676906;29;956;-62
2023/08/13 00:01:17;;;;;;;7.15;3.50;;;;;;;14.94;100.00;100923.25;678076;29;830;-63
2023/08/13 00:01:37;;;;;;;7.60;3.50;;;;;;;14.93;100.00;100924.16;680264;29;807;-62
2023/08/13 00:01:58;;;;;;;7.75;3.33;;;;;;;14.94;100.00;100925.88;679035;28;2344;-63
2023/08/13 00:02:18;;;;;;;6.50;3.20;;;;;;;14.95;100.00;100925.00;679619;28;4311;-63
2023/08/13 00:02:38;;;;;;;6.57;3.40;;;;;;;14.96;100.00;100923.22;679817;29;833;-63
2023/08/13 00:02:59;;;;;;;6.50;3.40;;;;;;;14.95;100.00;100921.47;679439;28;1723;-62
2023/08/13 00:03:19;;;;;;;4.87;3.30;;;;;;;14.97;100.00;100922.34;679755;29;831;-62
2023/08/13 00:03:40;;;;;;;6.63;3.17;;;;;;;15.02;100.00;100925.72;678814;29;1259;-63
2023/08/13 00:04:00;;;;;;;6.07;3.30;;;;;;;15.06;100.00;100921.28;676767;29;2579;-63
2023/08/13 00:04:20;;;;;;;5.78;3.33;;;;;;;15.07;100.00;100917.75;677923;29;914;-63
2023/08/13 00:04:41;;;;;;;7.27;3.53;;;;;;;15.08;100.00;100924.78;677969;29;894;-63
2023/08/13 00:05:03;;;;;;;6.13;3.50;;;;;;;15.09;100.00;100921.22;675219;29;2291;-62
2023/08/13 00:05:23;;;;;;;6.05;3.60;;;;;;;15.07;100.00;100918.63;675049;29;4590;-62
2023/08/13 00:05:46;;;;;;;6.30;3.83;;;;;;;15.07;100.00;100913.34;679908;29;1296;-62
2023/08/13 00:06:06;;;;;;;6.38;3.85;;;;;;;15.06;100.00;100916.00;677425;29;1443;-62
2023/08/13 00:06:27;;;;;;;5.88;3.20;;;;;;;15.05;100.00;100920.44;677644;29;881;-63
2023/08/13 00:06:47;;;;;;;6.83;3.50;;;;;;;15.03;100.00;100922.22;677617;29;917;-62
2023/08/13 00:07:09;;;;;;;7.20;3.17;;;;;;;15.04;100.00;100920.47;678002;29;3088;-62
2023/08/13 00:07:30;;;;;;;6.60;3.30;;;;;;;15.00;100.00;100917.00;678587;29;1109;-63
2023/08/13 00:07:50;;;;;;;6.38;3.45;;;;;;;14.98;100.00;100918.78;678348;29;937;-63
2023/08/13 00:08:10;;;;;;;5.57;3.40;;;;;;;15.00;100.00;100921.41;677613;29;4818;-63
2023/08/13 00:08:31;;;;;;;7.47;3.30;;;;;;;14.98;100.00;100914.41;678719;29;936;-62
2023/08/13 00:08:51;;;;;;;7.25;4.00;;;;;;;14.97;100.00;100915.28;678950;29;1282;-62
2023/08/13 00:09:12;;;;;;;6.33;3.87;;;;;;;14.98;100.00;100913.53;676926;29;1692;-64
2023/08/13 00:09:32;;;;;;;6.38;3.40;;;;;;;14.98;100.00;100908.25;678415;29;1038;-63
2023/08/13 00:09:52;;;;;;;7.17;3.60;;;;;;;14.97;100.00;100912.66;679102;29;791;-62
2023/08/13 00:10:13;;;;;;;6.40;3.50;;;;;;;14.97;100.00;100914.44;678899;29;2804;-63
2023/08/13 00:10:33;;;;;;;5.85;3.33;;;;;;;14.97;100.00;100909.19;678543;29;1262;-63
2023/08/13 00:10:54;;;;;;;6.17;3.40;;;;;;;14.97;100.00;100912.66;677496;29;1134;-64
2023/08/13 00:11:14;;;;;;;7.53;3.60;;;;;;;14.96;100.00;100905.66;677212;29;4368;-63
2023/08/13 00:11:36;;;;;;;9.03;3.90;;;;;;;14.96;100.00;100905.66;677285;29;935;-64
2023/08/13 00:11:56;;;;;;;8.82;3.58;;;;;;;14.95;100.00;100911.84;676721;29;1123;-64
2023/08/13 00:12:17;;;;;;;7.85;3.38;;;;;;;14.95;100.00;100909.22;679201;29;770;-63
2023/08/13 00:12:37;;;;;;;6.70;3.40;;;;;;;14.96;100.00;100916.19;682500;28;1380;-63
2023/08/13 00:12:57;;;;;;;7.43;3.60;;;;;;;14.97;100.00;100912.66;679776;28;1449;-63
2023/08/13 00:13:18;;;;;;;7.78;3.50;;;;;;;14.97;100.00;100907.41;681663;29;5459;-63
2023/08/13 00:13:39;;;;;;;6.50;3.33;;;;;;;14.98;100.00;100908.25;681893;29;921;-62
2023/08/13 00:13:59;;;;;;;6.40;3.40;;;;;;;14.96;100.00;100908.28;680242;28;1744;-63
2023/08/13 00:14:20;;;;;;;6.03;3.53;;;;;;;14.96;100.00;100908.28;681098;28;4396;-62
2023/08/13 00:14:40;;;;;;;6.97;3.40;;;;;;;14.98;100.00;100906.50;679247;29;1489;-62
2023/08/13 00:15:01;;;;;;;13.55;3.80;;;;;;;14.98;100.00;100917.03;677124;29;1817;-62
2023/08/13 00:15:21;;;;;;;6.23;3.40;;;;;;;14.98;100.00;100910.88;678364;29;1345;-64
2023/08/13 00:15:42;;;;;;;6.80;3.40;;;;;;;14.98;100.00;100908.25;678928;29;846;-64
2023/08/13 00:16:02;;;;;;;9.70;3.43;;;;;;;14.97;100.00;100911.81;677079;29;2349;-63
2023/08/13 00:16:23;;;;;;;6.45;3.30;;;;;;;14.96;100.00;100912.69;678616;29;941;-63
2023/08/13 00:16:44;;;;;;;6.60;3.43;;;;;;;14.95;100.00;100905.69;678981;29;940;-62
2023/08/13 00:17:05;;;;;;;6.30;3.28;;;;;;;14.95;100.00;100906.56;676318;28;4337;-63
2023/08/13 00:17:25;;;;;;;6.82;3.30;;;;;;;14.98;100.00;100908.25;678902;29;968;-63
2023/08/13 00:17:45;;;;;;;7.10;3.50;;;;;;;14.96;100.00;100913.56;680281;29;1186;-62
2023/08/13 00:18:06;;;;;;;6.90;3.30;;;;;;;15.00;100.00;100910.88;677472;29;2809;-63
2023/08/13 00:18:28;;;;;;;6.53;3.60;;;;;;;15.03;100.00;100910.81;678793;29;980;-63
2023/08/13 00:18:48;;;;;;;6.63;3.42;;;;;;;15.02;100.00;100914.34;679274;29;1914;-63
2023/08/13 00:19:08;;;;;;;7.07;3.60;;;;;;;14.99;100.00;100912.63;677479;29;2692;-63
2023/08/13 00:19:29;;;;;;;6.13;3.60;;;;;;;14.97;100.00;100907.41;679557;29;1285;-64
2023/08/13 00:19:49;;;;;;;6.32;3.60;;;;;;;14.98;100.00;100910.88;678143;29;838;-63
2023/08/13 00:20:10;;;;;;;6.03;3.60;;;;;;;14.97;100.00;100915.28;676928;28;4318;-63
2023/08/13 00:20:31;;;;;;;6.65;3.47;;;;;;;14.97;100.00;100910.03;679154;29;881;-63
2023/08/13 00:20:51;;;;;;;6.22;3.70;;;;;;;14.97;100.00;100914.44;678790;29;922;-62
2023/08/13 00:21:11;;;;;;;5.93;3.40;;;;;;;14.98;100.00;100908.25;679718;28;1690;-65
2023/08/13 00:21:32;;;;;;;6.20;3.40;;;;;;;14.97;100.00;100910.03;681841;29;1237;-63
2023/08/13 00:21:52;;;;;;;5.97;3.38;;;;;;;14.98;100.00;100914.41;681639;29;885;-64
2023/08/13 00:22:12;;;;;;;5.90;3.43;;;;;;;15.03;100.00;100914.31;680095;28;2346;-63
2023/08/13 00:22:33;;;;;;;5.97;3.30;;;;;;;15.03;100.00;100911.69;679039;29;908;-63
2023/08/13 00:22:53;;;;;;;5.77;3.40;;;;;;;15.04;100.00;100915.19;679293;29;1032;-62
2023/08/13 00:23:13;;;;;;;6.77;3.50;;;;;;;15.04;100.00;100916.06;675828;29;4457;-63
2023/08/13 00:23:34;;;;;;;7.30;3.50;;;;;;;15.04;100.00;100908.16;679099;29;929;-62
2023/08/13 00:23:54;;;;;;;6.57;3.37;;;;;;;15.01;100.00;100917.88;677721;29;1830;-65
2023/08/13 00:24:15;;;;;;;6.72;3.13;;;;;;;15.00;100.00;100919.63;678869;29;933;-62
2023/08/13 00:24:35;;;;;;;7.20;3.47;;;;;;;15.00;100.00;100916.16;678679;29;1266;-63
2023/08/13 00:24:56;;;;;;;8.75;3.40;;;;;;;15.02;100.00;100919.59;678400;29;1726;-63
2023/08/13 00:25:16;;;;;;;9.10;3.43;;;;;;;15.04;100.00;100910.78;679033;29;1324;-64
2023/08/13 00:25:36;;;;;;;7.37;3.43;;;;;;;15.05;100.00;100914.28;677996;29;807;-63
2023/08/13 00:25:57;;;;;;;6.38;3.50;;;;;;;15.05;100.00;100912.53;677595;29;2731;-62
2023/08/13 00:26:19;;;;;;;8.30;3.40;;;;;;;15.02;100.00;100915.19;678703;28;4415;-64
2023/08/13 00:26:40;;;;;;;6.80;3.60;;;;;;;15.02;100.00;100914.34;679554;29;921;-64
2023/08/13 00:27:01;;;;;;;6.10;3.42;;;;;;;15.00;100.00;100910.88;680116;28;1910;-62
2023/08/13 00:27:21;;;;;;;7.13;3.50;;;;;;;15.00;100.00;100910.88;680364;29;811;-63
2023/08/13 00:27:42;;;;;;;6.43;3.50;;;;;;;15.01;100.00;100913.47;681869;29;766;-64
2023/08/13 00:28:02;;;;;;;7.60;3.47;;;;;;;15.04;100.00;100916.06;679712;28;1027;-63
2023/08/13 00:28:23;;;;;;;5.80;3.20;;;;;;;15.04;100.00;100920.47;678298;29;946;-63
2023/08/13 00:28:43;;;;;;;5.43;3.20;;;;;;;15.03;100.00;100922.22;678758;29;818;-62
2023/08/13 00:29:04;;;;;;;6.30;3.47;;;;;;;15.04;100.00;100912.56;675911;29;4452;-62
2023/08/13 00:29:26;;;;;;;6.78;3.40;;;;;;;15.02;100.00;100912.56;677679;29;1479;-64
2023/08/13 00:29:46;;;;;;;5.72;3.38;;;;;;;15.08;100.00;100919.50;676082;29;1160;-62
2023/08/13 00:30:07;;;;;;;5.77;3.10;;;;;;;15.19;100.00;100912.25;674254;29;1864;-62
2023/08/13 00:30:28;;;;;;;6.03;3.17;;;;;;;15.32;100.00;100910.22;676887;29;899;-63
2023/08/13 00:30:48;;;;;;;7.30;3.60;;;;;;;15.25;100.00;100919.16;676917;29;894;-62
2023/08/13 00:31:09;;;;;;;8.30;3.53;;;;;;;15.21;100.00;100915.72;675467;29;1994;-62
2023/08/13 00:31:29;;;;;;;6.10;3.40;;;;;;;15.19;100.00;100917.53;672149;29;1198;-62
2023/08/13 00:31:54;;;;;;;8.07;3.43;;;;;;;15.17;100.00;100916.66;673771;29;1177;-62
2023/08/13 00:32:15;;;;;;;6.57;3.28;;;;;;;15.14;100.00;100916.75;674052;29;4413;-62
2023/08/13 00:32:35;;;;;;;5.90;3.40;;;;;;;15.13;100.00;100918.50;673642;29;917;-62
2023/08/13 00:32:56;;;;;;;5.97;3.40;;;;;;;15.12;100.00;100915.91;672806;29;1934;-61
2023/08/13 00:33:16;;;;;;;6.03;3.20;;;;;;;15.10;100.00;100913.28;673146;29;890;-62
2023/08/13 00:33:36;;;;;;;6.70;3.30;;;;;;;15.10;100.00;100922.97;675175;29;823;-64
2023/08/13 00:33:57;;;;;;;6.20;3.25;;;;;;;15.10;100.00;100915.91;675902;29;1767;-62
2023/08/13 00:34:17;;;;;;;7.20;3.30;;;;;;;15.10;100.00;100923.81;678031;29;1253;-62
2023/08/13 00:34:38;;;;;;;8.70;3.42;;;;;;;15.09;100.00;100926.47;679212;29;1299;-62
2023/08/13 00:34:58;;;;;;;8.17;3.43;;;;;;;15.06;100.00;100919.50;677706;29;2302;-62
2023/08/13 00:35:18;;;;;;;6.85;3.60;;;;;;;15.01;100.00;100921.38;678555;29;4370;-63
2023/08/13 00:35:39;;;;;;;7.07;3.63;;;;;;;15.01;100.00;100923.13;676774;29;818;-62
2023/08/13 00:35:59;;;;;;;7.20;3.63;;;;;;;15.02;100.00;100927.50;677340;29;1868;-63
2023/08/13 00:36:20;;;;;;;5.63;3.30;;;;;;;15.03;100.00;100926.63;678554;29;1187;-62
2023/08/13 00:36:40;;;;;;;5.13;3.30;;;;;;;15.03;100.00;100921.34;678890;29;1339;-63
2023/08/13 00:37:01;;;;;;;6.88;3.90;;;;;;;15.04;100.00;100928.34;676091;29;2346;-61
2023/08/13 00:37:21;;;;;;;6.30;3.50;;;;;;;15.04;100.00;100916.06;679672;29;806;-62
2023/08/13 00:37:41;;;;;;;6.80;3.30;;;;;;;15.03;100.00;100919.56;677005;29;1062;-61
2023/08/13 00:38:02;;;;;;;6.53;3.50;;;;;;;15.03;100.00;100921.34;674225;29;1686;-64
2023/08/13 00:38:23;;;;;;;7.35;3.53;;;;;;;15.04;100.00;100917.81;678251;29;4380;-64
2023/08/13 00:38:43;;;;;;;5.60;3.33;;;;;;;15.04;100.00;100917.81;678915;29;1981;-62
2023/08/13 00:39:03;;;;;;;6.38;3.40;;;;;;;15.04;100.00;100917.81;673419;29;1744;-62
2023/08/13 00:39:24;;;;;;;5.83;3.40;;;;;;;15.04;100.00;100923.94;675264;29;1272;-62
2023/08/13 00:39:44;;;;;;;6.13;3.30;;;;;;;15.03;100.00;100918.72;677582;29;1109;-63
2023/08/13 00:40:05;;;;;;;6.57;3.43;;;;;;;15.04;100.00;100923.09;673072;29;1466;-62
2023/08/13 00:40:27;;;;;;;7.43;3.60;;;;;;;15.01;100.00;100923.13;676162;29;1217;-62
2023/08/13 00:40:47;;;;;;;6.50;3.38;;;;;;;15.01;100.00;100928.41;678961;29;1181;-63
2023/08/13 00:41:08;;;;;;;7.47;3.43;;;;;;;14.98;100.00;100924.03;679729;28;4593;-64
2023/08/13 00:41:28;;;;;;;6.28;3.25;;;;;;;14.98;100.00;100924.03;681796;29;1372;-63
2023/08/13 00:41:48;;;;;;;8.30;3.60;;;;;;;14.97;100.00;100933.72;679415;29;865;-63
2023/08/13 00:42:09;;;;;;;5.57;3.40;;;;;;;14.96;100.00;100916.19;677270;29;2343;-62
2023/08/13 00:42:29;;;;;;;5.33;3.50;;;;;;;14.98;100.00;100930.19;677674;29;1689;-63
2023/08/13 00:42:50;;;;;;;5.60;3.45;;;;;;;14.97;100.00;100923.19;676305;29;1264;-61
2023/08/13 00:43:10;;;;;;;6.87;3.47;;;;;;;14.97;100.00;100923.19;674261;29;3359;-63
2023/08/13 00:43:31;;;;;;;7.47;3.20;;;;;;;15.00;100.00;100929.31;674316;29;837;-63
2023/08/13 00:43:51;;;;;;;8.05;3.85;;;;;;;14.99;100.00;100920.53;676925;29;862;-62
2023/08/13 00:44:11;;;;;;;8.90;3.80;;;;;;;14.99;100.00;100925.78;674424;29;4424;-63
2023/08/13 00:44:32;;;;;;;9.77;4.10;;;;;;;15.00;100.00;100926.69;679247;29;918;-62
2023/08/13 00:44:52;;;;;;;6.57;3.53;;;;;;;15.01;100.00;100928.41;679044;29;1059;-62
2023/08/13 00:45:13;;;;;;;5.45;3.40;;;;;;;15.02;100.00;100927.50;677636;29;1744;-64
2023/08/13 00:45:35;;;;;;;8.05;4.28;;;;;;;15.01;100.00;100928.41;677604;29;1346;-63
2023/08/13 00:45:57;;;;;;;8.80;4.47;;;;;;;15.01;100.00;100928.41;677746;29;1809;-64
2023/08/13 00:46:18;;;;;;;7.05;3.80;;;;;;;15.00;100.00;100926.69;677364;29;2121;-63
2023/08/13 00:46:39;;;;;;;7.10;3.83;;;;;;;14.98;100.00;100924.94;677833;29;1602;-64
2023/08/13 00:47:00;;;;;;;7.15;3.60;;;;;;;15.00;100.00;100927.53;677131;29;2018;-62
2023/08/13 00:47:20;;;;;;;7.43;3.38;;;;;;;14.99;100.00;100931.06;677845;29;4263;-62
2023/08/13 00:47:41;;;;;;;7.10;3.63;;;;;;;15.01;100.00;100931.03;678548;29;1337;-62
2023/08/13 00:48:05;;;;;;;7.25;3.45;;;;;;;15.02;100.00;100924.88;675555;29;1721;-63
2023/08/13 00:48:26;;;;;;;7.40;3.60;;;;;;;15.03;100.00;100929.25;675695;29;1167;-62
2023/08/13 00:48:47;;;;;;;7.55;3.58;;;;;;;15.03;100.00;100929.25;678614;29;1499;-63
2023/08/13 00:49:08;;;;;;;7.80;3.60;;;;;;;15.02;100.00;100924.88;678120;29;2303;-62
2023/08/13 00:49:28;;;;;;;7.78;3.67;;;;;;;15.01;100.00;100928.41;676145;29;1961;-64
2023/08/13 00:49:49;;;;;;;6.97;3.60;;;;;;;15.01;100.00;100929.28;677296;29;1452;-63
2023/08/13 00:50:10;;;;;;;6.20;3.30;;;;;;;15.01;100.00;100931.03;677687;28;4644;-63
2023/08/13 00:50:31;;;;;;;6.63;3.23;;;;;;;15.01;100.00;100933.66;677477;29;1291;-64
2023/08/13 00:50:51;;;;;;;7.43;3.63;;;;;;;15.02;100.00;100933.63;678418;29;830;-62
2023/08/13 00:51:12;;;;;;;5.50;3.60;;;;;;;15.03;100.00;100929.25;674837;29;2215;-63
2023/08/13 00:51:32;;;;;;;6.60;3.38;;;;;;;15.03;100.00;100931.88;675176;29;1453;-64
2023/08/13 00:51:53;;;;;;;7.68;3.70;;;;;;;15.03;100.00;100935.38;675850;29;831;-63
2023/08/13 00:52:16;;;;;;;7.43;3.53;;;;;;;15.02;100.00;100931.00;675455;29;2248;-62
2023/08/13 00:52:37;;;;;;;8.95;3.65;;;;;;;15.01;100.00;100933.66;675496;29;1257;-63
2023/08/13 00:52:57;;;;;;;8.48;3.70;;;;;;;15.00;100.00;100931.94;674906;29;1959;-63
2023/08/13 00:53:18;;;;;;;8.85;3.75;;;;;;;15.00;100.00;100934.56;677337;29;4575;-63
2023/08/13 00:53:48;;;;;;;6.25;3.55;;;;;;;15.01;100.00;100933.66;677332;29;1404;-64
2023/08/13 00:54:09;;;;;;;7.75;3.40;;;;;;;15.01;100.00;100938.94;675586;29;1494;-62
2023/08/13 00:54:30;;;;;;;7.60;3.60;;;;;;;15.02;100.00;100940.66;677008;29;1181;-63
2023/08/13 00:54:50;;;;;;;8.75;3.63;;;;;;;15.01;100.00;100936.28;675840;29;1372;-64
2023/08/13 00:55:11;;;;;;;8.55;3.50;;;;;;;15.03;100.00;100938.00;675057;29;1831;-62
2023/08/13 00:55:33;;;;;;;6.35;3.42;;;;;;;15.01;100.00;100933.66;677429;29;1173;-62
2023/08/13 00:55:53;;;;;;;7.53;3.50;;;;;;;15.01;100.00;100946.81;675115;29;1437;-64
2023/08/13 00:56:15;;;;;;;6.38;3.35;;;;;;;15.00;100.00;100940.69;674741;29;4493;-63
2023/08/13 00:56:36;;;;;;;6.65;3.50;;;;;;;15.01;100.00;100942.44;677812;29;957;-64
2023/08/13 00:56:56;;;;;;;6.32;3.53;;;;;;;15.01;100.00;100939.81;677644;29;1106;-63
2023/08/13 00:57:17;;;;;;;6.40;3.50;;;;;;;15.08;100.00;100951.97;677687;29;1276;-62
2023/08/13 00:57:38;;;;;;;6.78;3.72;;;;;;;15.11;100.00;100940.50;678426;29;885;-63
2023/08/13 00:57:59;;;;;;;7.53;3.53;;;;;;;15.20;100.00;100945.56;676659;29;1308;-63
2023/08/13 00:58:20;;;;;;;8.00;3.47;;;;;;;15.25;100.00;100945.50;677481;29;1036;-62
2023/08/13 00:58:41;;;;;;;6.17;3.23;;;;;;;15.24;100.00;100947.25;678070;29;747;-64
2023/08/13 00:59:05;;;;;;;6.82;3.38;;;;;;;15.22;100.00;100949.06;676985;29;1926;-63
2023/08/13 00:59:26;;;;;;;6.97;3.50;;;;;;;15.19;100.00;100943.84;678041;29;4921;-63
2023/08/13 00:59:48;;;;;;;7.28;3.50;;;;;;;15.16;100.00;100943.91;678334;29;1231;-63
2023/08/13 01:00:10;;;;;;;6.20;3.33;;;;;;;15.14;100.00;100943.91;677207;29;2063;-63
2023/08/13 01:00:32;;;;;;;6.70;3.50;;;;;;;15.13;100.00;100943.97;681032;29;1370;-62
2023/08/13 01:00:55;;;;;;;6.18;3.53;;;;;;;15.12;100.00;100942.25;678824;29;1249;-63
2023/08/13 01:01:15;;;;;;;6.80;3.58;;;;;;;15.13;100.00;100943.97;675078;29;1458;-63
2023/08/13 01:01:36;;;;;;;6.13;3.67;;;;;;;15.12;100.00;100943.09;676965;29;759;-63
2023/08/13 01:01:56;;;;;;;10.15;4.25;;;;;;;15.13;100.00;100943.97;676743;29;1295;-63
2023/08/13 01:02:17;;;;;;;7.77;3.50;;;;;;;15.12;100.00;100936.97;675924;29;4614;-63
2023/08/13 01:02:39;;;;;;;5.83;3.10;;;;;;;15.11;100.00;100938.72;676703;29;791;-63
2023/08/13 01:03:00;;;;;;;5.97;3.25;;;;;;;15.12;100.00;100942.25;677855;28;2185;-64
2023/08/13 01:03:20;;;;;;;6.97;3.30;;;;;;;15.11;100.00;100936.09;681389;29;2770;-63
2023/08/13 01:03:41;;;;;;;5.75;3.40;;;;;;;15.11;100.00;100944.00;681327;29;1291;-63
2023/08/13 01:04:01;;;;;;;6.47;3.30;;;;;;;15.10;100.00;100938.75;678869;28;2681;-63
2023/08/13 01:04:22;;;;;;;7.20;3.33;;;;;;;15.10;100.00;100938.75;678850;29;1015;-62
2023/08/13 01:04:43;;;;;;;6.87;3.40;;;;;;;15.10;100.00;100942.25;679492;29;1267;-63
2023/08/13 01:05:05;;;;;;;7.20;3.42;;;;;;;15.10;100.00;100941.38;677337;28;4552;-64
2023/08/13 01:05:38;;;;;;;5.75;3.20;;;;;;;15.10;100.00;100936.13;678931;29;864;-64
2023/08/13 01:06:06;;;;;;;6.32;3.70;;;;;;;15.07;100.00;100934.41;677423;28;1513;-63
2023/08/13 01:06:52;;;;;;;7.38;3.60;;;;;;;15.11;100.00;100937.88;679847;28;933;-64
2023/08/13 01:07:29;;;;;;;7.20;3.70;;;;;;;15.13;100.00;100941.31;681165;28;1762;-63
2023/08/13 01:08:16;;;;;;;5.40;3.45;;;;;;;15.12;100.00;100932.56;681528;29;1337;-64
2023/08/13 01:08:48;;;;;;;7.03;3.83;;;;;;;15.11;100.00;100941.34;681304;29;6136;-63
2023/08/13 01:09:30;;;;;;;5.13;3.40;;;;;;;15.10;100.00;100931.72;677519;29;2387;-64
2023/08/13 01:10:06;;;;;;;6.40;3.90;;;;;;;15.09;100.00;100937.91;678732;29;949;-62
2023/08/13 01:10:34;;;;;;;7.32;3.53;;;;;;;15.10;100.00;100930.84;678725;29;877;-64
2023/08/13 01:11:07;;;;;;;8.00;3.60;;;;;;;15.10;100.00;100931.72;678978;29;937;-63
2023/08/13 01:11:43;;;;;;;6.70;3.45;;;;;;;15.11;100.00;100937.88;676723;29;5286;-63
2023/08/13 01:12:06;;;;;;;6.30;3.42;;;;;;;15.10;100.00;100933.50;677316;29;1570;-64
2023/08/13 01:12:30;;;;;;;8.35;3.60;;;;;;;15.09;100.00;100931.75;675478;29;898;-62
2023/08/13 01:12:59;;;;;;;6.80;3.60;;;;;;;15.08;100.00;100932.66;675971;29;1381;-62
2023/08/13 01:13:28;;;;;;;6.53;3.55;;;;;;;15.07;100.00;100931.78;675284;29;5691;-64
2023/08/13 01:14:03;;;;;;;6.47;3.47;;;;;;;15.09;100.00;100937.00;677082;29;1133;-62
2023/08/13 01:14:31;;;;;;;6.28;3.58;;;;;;;15.11;100.00;100936.09;679070;29;4915;-63
2023/08/13 01:15:00;;;;;;;7.75;3.50;;;;;;;15.12;100.00;100931.72;681591;28;960;-63
2023/08/13 01:15:38;;;;;;;6.05;3.60;;;;;;;15.14;100.00;100937.81;677512;29;1075;-63
2023/08/13 01:15:59;;;;;;;6.90;3.60;;;;;;;15.17;100.00;100937.72;676099;29;1909;-63
2023/08/13 01:16:21;;;;;;;6.37;3.80;;;;;;;15.16;100.00;100925.50;676720;29;1695;-64
2023/08/13 01:16:43;;;;;;;6.82;3.70;;;;;;;15.16;100.00;100936.03;677026;29;1490;-61
2023/08/13 01:17:06;;;;;;;6.65;3.50;;;;;;;15.15;100.00;100932.50;674953;29;4417;-62
2023/08/13 01:17:29;;;;;;;7.22;3.72;;;;;;;15.14;100.00;100928.13;675284;29;2166;-62
2023/08/13 01:17:52;;;;;;;7.32;3.63;;;;;;;15.12;100.00;100937.84;676290;29;799;-64
2023/08/13 01:18:13;;;;;;;6.70;3.80;;;;;;;15.11;100.00;100944.00;677457;28;2520;-63
2023/08/13 01:18:36;;;;;;;6.85;3.58;;;;;;;15.07;100.00;100939.69;681338;28;1154;-63
2023/08/13 01:18:57;;;;;;;9.15;3.60;;;;;;;15.07;100.00;100941.47;677399;29;1919;-62
2023/08/13 01:19:18;;;;;;;6.57;3.80;;;;;;;15.05;100.00;100938.84;677549;29;1844;-63
2023/08/13 01:19:38;;;;;;;6.00;3.80;;;;;;;15.06;100.00;100943.19;677509;29;811;-63
2023/08/13 01:19:59;;;;;;;6.35;3.50;;;;;;;15.07;100.00;100941.47;676248;29;2412;-64
2023/08/13 01:20:28;;;;;;;5.43;3.45;;;;;;;15.09;100.00;100947.53;677320;29;4840;-63
2023/08/13 01:20:49;;;;;;;6.68;3.80;;;;;;;15.10;100.00;100941.38;678384;29;849;-63
2023/08/13 01:21:09;;;;;;;7.70;3.67;;;;;;;15.11;100.00;100943.13;673734;29;1847;-62
2023/08/13 01:21:29;;;;;;;8.53;3.70;;;;;;;15.11;100.00;100943.13;675697;29;1219;-64
2023/08/13 01:21:50;;;;;;;8.77;3.80;;;;;;;15.09;100.00;100939.66;676924;29;1230;-63
2023/08/13 01:22:10;;;;;;;10.15;3.70;;;;;;;15.07;100.00;100938.81;677182;29;2704;-63
2023/08/13 01:22:35;;;;;;;8.47;3.90;;;;;;;15.07;100.00;100944.94;675120;29;1308;-62
2023/08/13 01:22:56;;;;;;;7.53;3.83;;;;;;;15.09;100.00;100943.16;677390;29;1341;-63
2023/08/13 01:23:16;;;;;;;8.18;4.03;;;;;;;15.10;100.00;100938.75;675358;29;4466;-64
2023/08/13 01:23:36;;;;;;;7.83;3.70;;;;;;;15.10;100.00;100944.88;676317;29;1166;-63
2023/08/13 01:23:57;;;;;;;6.03;3.40;;;;;;;15.11;100.00;100943.13;675747;29;866;-63
2023/08/13 01:24:17;;;;;;;5.00;3.30;;;;;;;15.12;100.00;100942.25;675020;29;2421;-63
2023/08/13 01:24:37;;;;;;;6.17;3.37;;;;;;;15.13;100.00;100938.69;677434;29;857;-63
2023/08/13 01:24:58;;;;;;;7.53;3.63;;;;;;;15.14;100.00;100943.06;677640;29;850;-63
2023/08/13 01:25:23;;;;;;;6.22;3.63;;;;;;;15.14;100.00;100941.28;677055;29;1392;-63
2023/08/13 01:25:51;;;;;;;8.30;3.60;;;;;;;15.15;100.00;100939.53;679764;29;1046;-63
2023/08/13 01:26:18;;;;;;;7.13;3.60;;;;;;;15.14;100.00;100940.44;677560;29;4438;-62
2023/08/13 01:27:17;;;;;;;6.50;3.60;;;;;;;15.13;100.00;100933.44;676352;29;1669;-63
2023/08/13 01:27:49;;;;;;;8.10;3.45;;;;;;;15.12;100.00;100937.84;677154;29;1079;-63
2023/08/13 01:28:32;;;;;;;11.45;4.03;;;;;;;15.11;100.00;100940.50;676350;29;1818;-63
2023/08/13 01:29:06;;;;;;;7.10;3.70;;;;;;;15.10;100.00;100941.38;679114;29;1381;-62
2023/08/13 01:29:37;;;;;;;7.75;3.53;;;;;;;15.07;100.00;100946.72;675860;29;5036;-63
2023/08/13 01:30:26;;;;;;;8.55;3.50;;;;;;;15.14;100.00;100943.06;676186;29;871;-62
2023/08/13 01:30:56;;;;;;;8.15;3.90;;;;;;;15.15;100.00;100942.19;675660;29;2143;-62
2023/08/13 01:31:38;;;;;;;5.88;3.85;;;;;;;15.14;100.00;100938.66;672323;29;2059;-62
2023/08/13 01:32:02;;;;;;;6.53;3.70;;;;;;;15.15;100.00;100947.44;672508;29;2666;-63
2023/08/13 01:32:28;;;;;;;6.35;3.40;;;;;;;15.15;100.00;100942.19;673592;29;4547;-68
2023/08/13 01:32:58;;;;;;;6.80;3.42;;;;;;;15.15;100.00;100936.91;672903;29;1229;-63
2023/08/13 01:33:27;;;;;;;6.40;3.75;;;;;;;15.14;100.00;100941.28;675569;29;2311;-62
2023/08/13 01:33:50;;;;;;;8.95;3.65;;;;;;;15.13;100.00;100938.69;676798;29;1411;-62
2023/08/13 01:34:12;;;;;;;8.25;3.70;;;;;;;15.13;100.00;100941.31;675542;29;1946;-65
2023/08/13 01:34:32;;;;;;;5.70;3.30;;;;;;;15.13;100.00;100939.59;677704;29;1549;-62
2023/08/13 01:34:53;;;;;;;6.50;3.88;;;;;;;15.13;100.00;100941.31;681582;29;810;-63
2023/08/13 01:35:17;;;;;;;8.48;3.70;;;;;;;15.12;100.00;100940.47;677855;29;4766;-64
2023/08/13 01:35:38;;;;;;;8.13;3.63;;;;;;;15.12;100.00;100934.34;679099;29;1392;-63
2023/08/13 01:36:01;;;;;;;6.00;3.58;;;;;;;15.13;100.00;100936.94;678306;29;1288;-62
2023/08/13 01:36:25;;;;;;;7.07;3.72;;;;;;;15.14;100.00;100935.16;678929;29;862;-64
2023/08/13 01:36:46;;;;;;;7.32;3.67;;;;;;;15.14;100.00;100940.44;677138;29;1593;-64
2023/08/13 01:37:08;;;;;;;5.93;3.40;;;;;;;15.16;100.00;100938.66;673958;29;2477;-63
2023/08/13 01:37:28;;;;;;;6.50;3.60;;;;;;;15.16;100.00;100938.66;676521;29;1410;-63
2023/08/13 01:37:50;;;;;;;7.38;3.58;;;;;;;15.17;100.00;100936.88;676022;29;862;-63
2023/08/13 01:38:11;;;;;;;5.68;3.55;;;;;;;15.15;100.00;100942.19;675687;29;4615;-64
2023/08/13 01:38:32;;;;;;;7.05;3.90;;;;;;;15.14;100.00;100940.44;676199;29;1326;-62
2023/08/13 01:38:55;;;;;;;6.18;3.85;;;;;;;15.13;100.00;100938.69;676489;29;1918;-63
2023/08/13 01:39:15;;;;;;;6.72;3.33;;;;;;;15.13;100.00;100938.69;675978;29;1889;-63
2023/08/13 01:39:36;;;;;;;8.20;3.55;;;;;;;15.14;100.00;100938.66;674878;29;3837;-63
2023/08/13 01:39:56;;;;;;;6.70;3.60;;;;;;;15.14;100.00;100940.44;675511;29;791;-64
2023/08/13 01:40:17;;;;;;;6.00;3.53;;;;;;;15.12;100.00;100937.84;672628;29;1946;-62
2023/08/13 01:40:37;;;;;;;6.27;3.23;;;;;;;15.13;100.00;100938.69;674927;29;1228;-63
2023/08/13 01:41:01;;;;;;;8.30;3.50;;;;;;;15.12;100.00;100940.47;672438;29;941;-64
2023/08/13 01:41:22;;;;;;;8.15;3.90;;;;;;;15.11;100.00;100938.72;673582;29;4369;-62
2023/08/13 01:41:45;;;;;;;5.87;3.77;;;;;;;15.09;100.00;100937.00;676507;29;877;-64
2023/08/13 01:42:06;;;;;;;6.40;3.70;;;;;;;15.07;100.00;100941.47;674499;29;2254;-63
2023/08/13 01:42:26;;;;;;;6.57;3.42;;;;;;;15.07;100.00;100939.69;678139;29;1272;-63
2023/08/13 01:42:47;;;;;;;6.03;3.50;;;;;;;15.08;100.00;100944.06;678898;29;921;-62
2023/08/13 01:43:07;;;;;;;5.82;3.40;;;;;;;15.08;100.00;100941.44;678942;28;2255;-62
2023/08/13 01:43:28;;;;;;;6.47;3.50;;;;;;;15.08;100.00;100940.56;677151;29;1333;-62
2023/08/13 01:43:48;;;;;;;6.38;3.58;;;;;;;15.06;100.00;100947.63;676954;29;988;-64
2023/08/13 01:44:08;;;;;;;6.37;3.90;;;;;;;15.04;100.00;100938.88;674515;29;4438;-63
2023/08/13 01:44:29;;;;;;;6.20;3.70;;;;;;;15.03;100.00;100943.25;672752;29;1440;-64
2023/08/13 01:44:49;;;;;;;8.60;3.58;;;;;;;15.05;100.00;100945.88;673686;29;1133;-63
2023/08/13 01:45:09;;;;;;;9.20;3.60;;;;;;;15.06;100.00;100940.56;672042;29;2610;-63
2023/08/13 01:45:30;;;;;;;7.60;3.70;;;;;;;15.06;100.00;100943.19;675893;29;1173;-63
2023/08/13 01:45:50;;;;;;;5.43;3.70;;;;;;;15.05;100.00;100943.22;675477;29;874;-63
2023/08/13 01:46:11;;;;;;;7.23;3.60;;;;;;;15.05;100.00;100941.50;677134;29;1709;-63